Hughes Springs, Texas
Current Conditions -  °F | °C
As of 3:15 PM on Friday 24 Oct 2014 (Local Time) from KOSA Reporting Station
Clear Clear  
Wind Chill: 78°   Ceiling: Unl
Heat Index: 79°   Visibility: 10mi
Dew Point: 55°   Wind: 0mph
Humidity: 46%   Direction: NA
Pressure: 30.12"   Gusts: NA
Location:  33°N, 94.63°W
Report Text: KOSA 242015Z AUTO 00000KT 10SM CLR 25/13 A3012 RMK AO1 T02530129
Loading
Personal Weather Stations






























Interactive Weather Map
Tropical Storm Tracking
New forecast layout! Learn more

10-Day Weather Forecast

Advertisements
Track Severe Weather on mobile